Time;durP1;ratioP1;P1;durP2;ratioP2;P2;SDS_P1;SDS_P2;PMS_P1;PMS_P2;Temp;Humidity;BMP_temperature;BMP_pressure;BME280_temperature;BME280_humidity;BME280_pressure;Samples;Min_cycle;Max_cycle;Signal;HPM_P1;HPM_P2
2022/03/10 00:02:29;;;;;;;1.40;1.35;;;2.10;83.80;;;;;;4906261;29;20166;-71
2022/03/10 00:04:56;;;;;;;0.47;0.47;;;2.10;85.70;;;;;;4842405;29;20680;-71
2022/03/10 00:07:35;;;;;;;0.47;0.47;;;2.10;85.20;;;;;;4846802;29;20768;-71
2022/03/10 00:10:01;;;;;;;0.30;0.30;;;2.10;84.40;;;;;;4851110;29;20204;-71
2022/03/10 00:12:26;;;;;;;0.30;0.30;;;2.10;85.10;;;;;;4869347;29;20088;-71
2022/03/10 00:14:52;;;;;;;0.75;0.75;;;2.00;84.30;;;;;;4880660;29;20140;-71
2022/03/10 00:17:28;;;;;;;1.02;0.90;;;2.00;82.40;;;;;;4861577;29;20073;-71
2022/03/10 00:19:54;;;;;;;8.20;1.33;;;2.00;82.50;;;;;;4830912;29;20060;-71
2022/03/10 00:22:19;;;;;;;0.40;0.40;;;2.10;83.60;;;;;;4847133;29;20430;-71
2022/03/10 00:24:45;;;;;;;0.60;0.60;;;2.10;82.30;;;;;;4860924;29;20049;-71
2022/03/10 00:27:11;;;;;;;0.40;0.40;;;2.10;83.10;;;;;;4864895;29;20076;-71
2022/03/10 00:29:36;;;;;;;1.05;0.82;;;2.10;83.30;;;;;;4882131;29;20056;-71
2022/03/10 00:32:02;;;;;;;0.40;0.40;;;2.10;82.70;;;;;;4873691;29;20088;-71
2022/03/10 00:34:30;;;;;;;0.80;0.63;;;2.10;83.00;;;;;;4874015;29;20436;-72
2022/03/10 00:36:55;;;;;;;0.82;0.82;;;2.00;82.70;;;;;;4871312;29;20128;-71
2022/03/10 00:39:21;;;;;;;0.77;0.77;;;2.10;83.10;;;;;;4879875;29;20251;-71
2022/03/10 00:41:46;;;;;;;3.20;2.90;;;2.10;82.50;;;;;;4909796;28;20050;-72
2022/03/10 00:44:12;;;;;;;1.65;1.25;;;2.20;81.80;;;;;;4982292;28;20057;-71
2022/03/10 00:46:37;;;;;;;1.15;1.15;;;2.20;82.60;;;;;;4969844;28;20042;-71
2022/03/10 00:49:03;;;;;;;3.35;2.63;;;2.20;82.10;;;;;;4970312;28;20497;-71
2022/03/10 00:51:29;;;;;;;3.45;1.80;;;2.30;81.90;;;;;;4967748;28;20057;-71
2022/03/10 00:53:54;;;;;;;1.10;1.10;;;2.30;82.20;;;;;;4980436;28;20528;-71
2022/03/10 00:56:20;;;;;;;0.40;0.40;;;2.30;83.50;;;;;;4965371;28;20514;-71
2022/03/10 00:58:53;;;;;;;0.50;0.50;;;2.20;83.60;;;;;;4934728;28;20274;-71
2022/03/10 01:01:18;;;;;;;0.50;0.50;;;2.10;84.10;;;;;;4956759;28;20143;-71
2022/03/10 01:03:44;;;;;;;0.47;0.47;;;2.00;83.10;;;;;;4968495;28;20495;-71
2022/03/10 01:06:09;;;;;;;3.70;1.15;;;1.90;82.90;;;;;;4952764;28;20042;-71
2022/03/10 01:08:36;;;;;;;2.45;2.28;;;1.90;86.60;;;;;;4969750;28;20085;-71
2022/03/10 01:11:08;;;;;;;0.80;0.80;;;1.90;88.00;;;;;;4976224;28;20042;-71
2022/03/10 01:13:33;;;;;;;0.45;0.45;;;1.90;86.60;;;;;;4943944;28;20145;-71
2022/03/10 01:15:59;;;;;;;5.18;2.17;;;1.80;87.70;;;;;;4968703;28;20152;-71
2022/03/10 01:18:25;;;;;;;0.75;0.73;;;1.80;87.80;;;;;;4980304;28;20092;-71
2022/03/10 01:20:50;;;;;;;0.55;0.55;;;1.80;87.30;;;;;;4959181;28;20101;-71
2022/03/10 01:23:16;;;;;;;0.52;0.52;;;1.80;86.60;;;;;;4942793;28;20054;-71
2022/03/10 01:25:41;;;;;;;0.45;0.45;;;1.80;88.20;;;;;;4973961;28;20056;-71
2022/03/10 01:28:07;;;;;;;1.35;1.30;;;1.80;89.10;;;;;;4958843;28;20069;-71
2022/03/10 01:30:33;;;;;;;1.27;1.25;;;1.70;90.10;;;;;;4964243;28;20045;-71
2022/03/10 01:32:59;;;;;;;3.78;2.08;;;1.70;87.40;;;;;;4985966;28;20069;-71
2022/03/10 01:35:24;;;;;;;1.95;1.77;;;1.80;90.20;;;;;;4985749;28;20049;-71
2022/03/10 01:38:09;;;;;;;0.95;0.95;;;1.90;88.40;;;;;;4967162;28;20069;-71
2022/03/10 01:40:35;;;;;;;0.80;0.80;;;1.90;88.60;;;;;;4948945;28;20071;-71
2022/03/10 01:43:05;;;;;;;2.15;1.52;;;1.90;88.20;;;;;;4966646;28;20046;-71
2022/03/10 01:45:31;;;;;;;1.65;1.55;;;1.90;89.60;;;;;;4973973;28;20069;-71
2022/03/10 01:47:56;;;;;;;4.75;3.05;;;1.90;88.60;;;;;;4975324;28;20541;-71
2022/03/10 01:50:22;;;;;;;1.00;1.00;;;1.90;90.30;;;;;;4969395;28;20046;-71
2022/03/10 01:52:48;;;;;;;1.88;1.77;;;1.90;90.00;;;;;;4967496;28;20768;-73
2022/03/10 01:55:14;;;;;;;0.75;0.75;;;1.90;89.70;;;;;;4955389;28;20038;-72
2022/03/10 01:57:42;;;;;;;0.60;0.60;;;1.80;91.30;;;;;;4982508;28;20046;-71
2022/03/10 02:00:09;;;;;;;0.50;0.50;;;1.80;91.40;;;;;;4944505;28;20181;-71
2022/03/10 02:03:14;;;;;;;6.13;0.95;;;1.70;90.80;;;;;;4965090;28;20117;-71
2022/03/10 02:05:40;;;;;;;1.38;0.70;;;1.70;90.00;;;;;;4935537;28;20153;-71
2022/03/10 02:10:49;;;;;;;4.03;1.85;;;1.70;91.00;;;;;;4949477;28;20573;-71
2022/03/10 02:13:15;;;;;;;0.55;0.55;;;1.70;90.70;;;;;;4944944;28;20046;-71
2022/03/10 02:18:26;;;;;;;7.57;1.77;;;1.70;90.90;;;;;;4983818;28;20054;-71
2022/03/10 02:20:52;;;;;;;2.13;1.10;;;1.70;90.30;;;;;;4968400;28;20390;-71
2022/03/10 02:23:18;;;;;;;0.85;0.85;;;1.60;91.00;;;;;;4985326;28;20050;-71
2022/03/10 02:25:43;;;;;;;0.52;0.52;;;1.60;90.10;;;;;;4967587;28;20388;-71
2022/03/10 02:28:09;;;;;;;1.00;0.95;;;1.60;91.20;;;;;;4967618;28;20049;-71
2022/03/10 02:30:35;;;;;;;0.40;0.40;;;1.50;91.20;;;;;;4968572;28;20045;-71
2022/03/10 02:33:02;;;;;;;0.60;0.60;;;1.40;91.50;;;;;;4985386;28;20466;-71
2022/03/10 02:35:28;;;;;;;0.30;0.30;;;1.30;91.50;;;;;;4964418;28;20042;-71
2022/03/10 02:37:53;;;;;;;3.13;2.63;;;1.20;91.60;;;;;;4961563;28;20534;-71
2022/03/10 02:40:19;;;;;;;1.20;1.20;;;1.20;92.40;;;;;;4950755;28;20484;-71
2022/03/10 02:42:45;;;;;;;0.40;0.40;;;1.10;92.70;;;;;;4961000;28;20133;-71
2022/03/10 02:45:11;;;;;;;0.50;0.50;;;1.10;93.50;;;;;;4968298;28;20392;-71
2022/03/10 02:47:37;;;;;;;0.45;0.45;;;1.00;93.20;;;;;;4970272;28;22681;-71
2022/03/10 02:50:06;;;;;;;0.47;0.47;;;1.00;92.40;;;;;;4959028;28;20041;-71
2022/03/10 02:52:39;;;;;;;0.98;0.98;;;1.00;92.60;;;;;;4943693;28;20058;-71
2022/03/10 02:55:06;;;;;;;3.75;1.88;;;1.00;93.30;;;;;;4954978;28;20059;-71
2022/03/10 02:57:32;;;;;;;1.85;1.60;;;1.00;93.40;;;;;;4968726;28;20080;-71
2022/03/10 02:59:59;;;;;;;0.55;0.55;;;1.00;92.60;;;;;;4971843;28;20050;-71
2022/03/10 03:02:25;;;;;;;3.90;3.35;;;1.00;94.80;;;;;;4977071;28;20058;-71
2022/03/10 03:04:51;;;;;;;0.57;0.57;;;1.00;93.20;;;;;;4984806;28;20100;-71
2022/03/10 03:07:17;;;;;;;2.88;2.60;;;0.90;92.50;;;;;;4950422;28;20054;-71
2022/03/10 03:09:43;;;;;;;0.85;0.85;;;0.90;92.80;;;;;;4985335;28;20042;-71
2022/03/10 03:12:09;;;;;;;0.60;0.60;;;0.90;93.70;;;;;;4963593;28;20049;-71
2022/03/10 03:14:34;;;;;;;1.48;1.38;;;0.90;93.30;;;;;;4980383;28;20514;-71
2022/03/10 03:17:00;;;;;;;1.90;1.80;;;0.80;93.00;;;;;;4965669;28;20046;-71
2022/03/10 03:19:26;;;;;;;1.02;1.02;;;0.80;92.80;;;;;;4978554;28;20221;-71
2022/03/10 03:21:52;;;;;;;0.82;0.82;;;0.80;93.00;;;;;;4958660;28;20046;-71
2022/03/10 03:24:18;;;;;;;1.35;1.25;;;0.80;93.20;;;;;;4978025;28;20055;-71
2022/03/10 03:26:44;;;;;;;0.50;0.50;;;0.80;94.00;;;;;;4967464;28;20051;-71
2022/03/10 03:29:10;;;;;;;2.20;1.35;;;0.80;94.90;;;;;;4950149;28;20039;-71
2022/03/10 03:31:36;;;;;;;1.75;0.95;;;0.80;94.90;;;;;;4952289;28;20713;-71
2022/03/10 03:34:11;;;;;;;2.53;1.48;;;0.80;94.80;;;;;;4952613;28;20053;-71
2022/03/10 03:36:42;;;;;;;1.17;1.17;;;0.80;95.00;;;;;;4954844;28;20568;-71
2022/03/10 03:39:08;;;;;;;1.25;1.25;;;0.80;95.30;;;;;;4961208;28;20052;-71
2022/03/10 03:41:34;;;;;;;0.50;0.50;;;0.80;94.30;;;;;;4987932;28;20077;-71
2022/03/10 03:44:00;;;;;;;0.32;0.32;;;0.80;95.60;;;;;;4989873;28;20406;-71
2022/03/10 03:46:26;;;;;;;1.02;1.02;;;0.80;96.00;;;;;;4971384;28;20241;-71
2022/03/10 03:48:54;;;;;;;1.20;1.20;;;0.80;96.70;;;;;;4971133;28;20049;-72
2022/03/10 03:51:20;;;;;;;0.63;0.63;;;0.80;95.60;;;;;;4954885;28;20031;-71
2022/03/10 03:53:47;;;;;;;0.60;0.60;;;0.90;96.40;;;;;;4955203;28;20038;-72
2022/03/10 03:56:13;;;;;;;1.88;1.77;;;0.80;96.50;;;;;;4973037;28;20042;-71
2022/03/10 03:58:38;;;;;;;2.25;1.45;;;0.80;96.10;;;;;;4972009;28;20446;-71
2022/03/10 04:01:04;;;;;;;0.68;0.68;;;0.80;95.60;;;;;;4955904;28;20443;-71
2022/03/10 04:03:30;;;;;;;0.68;0.68;;;0.90;95.30;;;;;;4971812;28;20042;-70
2022/03/10 04:05:55;;;;;;;13.48;3.45;;;0.90;96.50;;;;;;4987600;28;20491;-70
2022/03/10 04:08:21;;;;;;;5.60;1.25;;;0.90;96.00;;;;;;4971967;28;20491;-70
2022/03/10 04:10:47;;;;;;;1.25;1.17;;;0.90;96.60;;;;;;4968639;28;20038;-70
2022/03/10 04:13:13;;;;;;;2.45;1.95;;;0.90;96.50;;;;;;4972158;28;20108;-70
2022/03/10 04:15:39;;;;;;;0.88;0.85;;;0.90;96.80;;;;;;4963219;28;20145;-70
2022/03/10 04:18:04;;;;;;;1.08;1.08;;;0.90;96.70;;;;;;4969871;28;20520;-70
2022/03/10 04:20:30;;;;;;;0.52;0.52;;;0.80;97.30;;;;;;4979954;28;20384;-70
2022/03/10 04:22:56;;;;;;;0.98;0.85;;;0.80;96.80;;;;;;4956327;28;20054;-70
2022/03/10 04:25:22;;;;;;;0.60;0.60;;;0.80;96.50;;;;;;4967906;28;20046;-72
2022/03/10 04:27:49;;;;;;;0.80;0.80;;;0.70;96.70;;;;;;4970990;28;20137;-71
2022/03/10 04:30:15;;;;;;;0.60;0.60;;;0.70;96.70;;;;;;4970763;28;20088;-70
2022/03/10 04:32:47;;;;;;;0.60;0.60;;;0.70;96.50;;;;;;4987514;28;20050;-70
2022/03/10 04:35:14;;;;;;;3.75;1.38;;;0.70;95.80;;;;;;4944425;28;20427;-70
2022/03/10 04:37:40;;;;;;;2.10;1.92;;;0.60;96.10;;;;;;4953902;28;20048;-70
2022/03/10 04:40:07;;;;;;;0.50;0.50;;;0.70;95.80;;;;;;4982782;28;20054;-71
2022/03/10 04:42:34;;;;;;;1.20;1.20;;;0.70;95.50;;;;;;4966665;28;20131;-71
2022/03/10 04:45:00;;;;;;;0.40;0.40;;;0.70;95.20;;;;;;4954717;28;20046;-71
2022/03/10 04:47:25;;;;;;;0.70;0.70;;;0.70;95.70;;;;;;4986545;28;20104;-71
2022/03/10 04:49:51;;;;;;;1.83;1.45;;;0.70;95.70;;;;;;4954112;28;20042;-72
2022/03/10 04:52:17;;;;;;;1.80;1.70;;;0.60;96.40;;;;;;4970066;28;20050;-71
2022/03/10 04:54:42;;;;;;;0.52;0.52;;;0.60;96.30;;;;;;4952161;28;20064;-71
2022/03/10 04:57:08;;;;;;;0.40;0.40;;;0.60;97.10;;;;;;4954907;28;20391;-71
2022/03/10 04:59:34;;;;;;;2.85;2.53;;;0.60;96.90;;;;;;4965744;28;20349;-71
2022/03/10 05:01:59;;;;;;;1.30;1.30;;;0.60;96.40;;;;;;4952681;28;20436;-71
2022/03/10 05:04:25;;;;;;;1.48;1.38;;;0.60;96.60;;;;;;4965844;28;20078;-71
2022/03/10 05:06:50;;;;;;;1.83;1.73;;;0.60;95.90;;;;;;4953674;28;20046;-71
2022/03/10 05:09:16;;;;;;;0.82;0.82;;;0.60;97.00;;;;;;4989008;28;20150;-71
2022/03/10 05:11:42;;;;;;;7.07;2.13;;;0.60;96.80;;;;;;4967029;28;20114;-71
2022/03/10 05:14:07;;;;;;;4.50;2.90;;;0.70;96.40;;;;;;4980106;28;20171;-71
2022/03/10 05:16:34;;;;;;;0.50;0.50;;;0.70;97.50;;;;;;4986730;28;20050;-71
2022/03/10 05:18:59;;;;;;;3.70;2.53;;;0.60;97.80;;;;;;4985714;28;20443;-71
2022/03/10 05:21:25;;;;;;;0.98;0.93;;;0.60;97.40;;;;;;4968294;28;20045;-71
2022/03/10 05:23:52;;;;;;;1.00;0.98;;;0.60;97.40;;;;;;4987568;28;20089;-71
2022/03/10 05:26:18;;;;;;;3.20;2.45;;;0.70;97.10;;;;;;4965093;28;20414;-71
2022/03/10 05:28:44;;;;;;;0.80;0.80;;;0.70;96.70;;;;;;4962290;28;20054;-71
2022/03/10 05:31:13;;;;;;;1.20;1.20;;;0.70;97.20;;;;;;4971704;28;20043;-71
2022/03/10 05:33:38;;;;;;;2.10;1.67;;;0.70;96.50;;;;;;4982691;28;20621;-71
2022/03/10 05:36:04;;;;;;;39.92;5.50;;;0.70;96.00;;;;;;4983990;28;20157;-71
2022/03/10 05:38:30;;;;;;;1.02;1.02;;;0.70;96.70;;;;;;4973080;28;20065;-71
2022/03/10 05:40:55;;;;;;;3.22;2.28;;;0.70;96.50;;;;;;4946143;28;20134;-71
2022/03/10 05:43:21;;;;;;;6.28;4.22;;;0.60;96.70;;;;;;4947388;28;21994;-71
2022/03/10 05:45:47;;;;;;;4.18;2.10;;;0.60;97.10;;;;;;4951145;28;20149;-75
2022/03/10 05:48:12;;;;;;;1.30;1.23;;;0.60;97.40;;;;;;4981830;28;20046;-75
2022/03/10 05:50:38;;;;;;;2.08;1.42;;;0.60;96.80;;;;;;4980228;28;20043;-73
2022/03/10 05:53:06;;;;;;;2.47;1.40;;;0.60;97.40;;;;;;4950759;28;20034;-73
2022/03/10 05:55:31;;;;;;;2.63;2.17;;;0.60;97.30;;;;;;4963976;28;20051;-73
2022/03/10 05:57:57;;;;;;;3.13;2.58;;;0.70;97.60;;;;;;4950237;28;20043;-73
2022/03/10 06:00:23;;;;;;;3.40;1.98;;;0.60;98.10;;;;;;4949929;28;20042;-73
2022/03/10 06:02:49;;;;;;;2.30;2.10;;;0.60;97.80;;;;;;4966018;28;20062;-73
2022/03/10 06:05:16;;;;;;;6.65;2.38;;;0.60;97.50;;;;;;4964148;28;20054;-73
2022/03/10 06:07:41;;;;;;;0.60;0.60;;;0.60;97.40;;;;;;4965540;28;20086;-71
2022/03/10 06:10:07;;;;;;;3.47;2.22;;;0.60;97.80;;;;;;4965588;28;20221;-70
2022/03/10 06:12:33;;;;;;;3.55;2.20;;;0.60;98.50;;;;;;4965927;28;20093;-72
2022/03/10 06:15:08;;;;;;;2.97;2.67;;;0.70;98.80;;;;;;4948723;28;20042;-71
2022/03/10 06:17:34;;;;;;;3.20;2.40;;;0.70;98.70;;;;;;4958497;28;20054;-72
2022/03/10 06:20:00;;;;;;;1.85;1.73;;;0.70;99.30;;;;;;4966001;28;20050;-72
2022/03/10 06:22:30;;;;;;;4.80;4.35;;;0.70;98.90;;;;;;4971749;28;20113;-72
2022/03/10 06:24:57;;;;;;;1.27;1.17;;;0.80;98.90;;;;;;4963911;28;20086;-72
2022/03/10 06:27:23;;;;;;;2.58;1.73;;;0.80;98.60;;;;;;4982399;28;20042;-74
2022/03/10 06:29:50;;;;;;;2.45;2.13;;;0.90;98.70;;;;;;4962718;28;20054;-71
2022/03/10 06:32:17;;;;;;;5.13;4.18;;;0.90;98.00;;;;;;4949812;28;20038;-71
2022/03/10 06:34:44;;;;;;;8.63;2.88;;;1.00;97.90;;;;;;4949254;28;20407;-71
2022/03/10 06:37:09;;;;;;;4.40;2.13;;;1.10;97.90;;;;;;4965007;28;20546;-73
2022/03/10 06:39:35;;;;;;;2.58;2.38;;;1.20;97.90;;;;;;4948403;28;20062;-70
2022/03/10 06:42:02;;;;;;;3.42;3.08;;;1.20;98.00;;;;;;4946688;28;20043;-71
2022/03/10 06:44:29;;;;;;;4.07;2.53;;;1.20;98.00;;;;;;4946962;29;20388;-71
2022/03/10 06:46:55;;;;;;;4.15;2.00;;;1.20;98.00;;;;;;4960738;28;20055;-71
2022/03/10 06:49:21;;;;;;;1.48;1.30;;;1.20;98.40;;;;;;4946490;29;20054;-72
2022/03/10 06:51:47;;;;;;;3.45;3.15;;;1.30;98.70;;;;;;4945771;29;20055;-71
2022/03/10 06:54:13;;;;;;;0.77;0.77;;;1.30;98.40;;;;;;4962826;28;20560;-71
2022/03/10 06:56:39;;;;;;;3.17;1.60;;;1.40;98.60;;;;;;4946223;28;20082;-72
2022/03/10 06:59:05;;;;;;;2.03;1.85;;;1.40;98.70;;;;;;4961988;28;20065;-71
2022/03/10 07:01:31;;;;;;;2.13;1.67;;;1.50;99.30;;;;;;4946334;29;20059;-71
2022/03/10 07:04:03;;;;;;;2.55;2.05;;;1.60;99.20;;;;;;4930397;29;20051;-73
2022/03/10 07:06:28;;;;;;;3.33;3.03;;;1.60;98.80;;;;;;4956067;28;20042;-72
2022/03/10 07:08:54;;;;;;;2.72;2.35;;;1.70;98.50;;;;;;4948618;28;20043;-75
2022/03/10 07:11:20;;;;;;;10.15;3.78;;;1.70;98.60;;;;;;4949891;29;20043;-71
2022/03/10 07:13:46;;;;;;;2.35;2.13;;;1.80;99.50;;;;;;4950558;29;20047;-71
2022/03/10 07:16:13;;;;;;;7.15;2.97;;;1.90;99.00;;;;;;4933708;29;20120;-71
2022/03/10 07:18:38;;;;;;;2.80;2.33;;;2.10;99.30;;;;;;4950565;29;20043;-71
2022/03/10 07:21:04;;;;;;;3.92;1.90;;;2.20;99.70;;;;;;4949273;29;20057;-71
2022/03/10 07:23:31;;;;;;;1.80;1.23;;;2.40;99.10;;;;;;4931472;29;20376;-71
2022/03/10 07:25:56;;;;;;;3.65;2.63;;;2.80;99.30;;;;;;4950976;28;20043;-71
2022/03/10 07:28:22;;;;;;;1.92;1.80;;;3.20;98.60;;;;;;4932301;29;20314;-71
2022/03/10 07:30:48;;;;;;;2.92;2.60;;;3.30;98.00;;;;;;4932517;29;20047;-71
2022/03/10 07:33:14;;;;;;;6.05;3.28;;;3.30;97.60;;;;;;4931999;29;20067;-71
2022/03/10 07:35:40;;;;;;;2.25;2.08;;;3.40;97.70;;;;;;4948733;29;20054;-71
2022/03/10 07:38:05;;;;;;;1.90;1.63;;;3.70;97.90;;;;;;4948185;29;20066;-72
2022/03/10 07:40:32;;;;;;;4.18;3.78;;;3.90;97.80;;;;;;4956471;28;20058;-71
2022/03/10 07:42:58;;;;;;;2.65;1.83;;;4.00;97.50;;;;;;4955854;28;20130;-70
2022/03/10 07:45:24;;;;;;;2.55;1.95;;;4.10;96.60;;;;;;4969342;28;20563;-70
2022/03/10 07:47:50;;;;;;;5.60;4.22;;;4.10;96.60;;;;;;4967455;28;20129;-72
2022/03/10 07:50:15;;;;;;;6.70;3.88;;;4.20;96.70;;;;;;4961234;28;20118;-71
2022/03/10 07:52:41;;;;;;;4.18;3.05;;;4.30;96.80;;;;;;4960566;28;20491;-70
2022/03/10 07:55:08;;;;;;;7.05;4.43;;;4.40;96.90;;;;;;4967442;28;20097;-73
2022/03/10 07:57:35;;;;;;;6.47;3.67;;;4.50;96.70;;;;;;4964491;28;20061;-73
2022/03/10 08:00:04;;;;;;;8.98;5.38;;;4.50;96.30;;;;;;4978103;28;20047;-70
2022/03/10 08:02:30;;;;;;;8.32;4.68;;;4.70;96.20;;;;;;4981830;28;20043;-72
2022/03/10 08:04:56;;;;;;;6.32;3.63;;;4.80;96.10;;;;;;4948909;28;20047;-72
2022/03/10 08:07:22;;;;;;;5.78;3.58;;;4.90;95.20;;;;;;4968445;28;20516;-72
2022/03/10 08:09:48;;;;;;;5.63;4.00;;;5.10;95.40;;;;;;4966827;28;20476;-72
2022/03/10 08:12:13;;;;;;;15.05;7.68;;;5.20;94.80;;;;;;4951539;28;20543;-72
2022/03/10 08:14:39;;;;;;;5.50;3.95;;;5.40;93.10;;;;;;4966048;28;20067;-72
2022/03/10 08:17:04;;;;;;;13.25;6.30;;;5.60;94.40;;;;;;4963635;28;20290;-72
2022/03/10 08:19:30;;;;;;;8.52;5.70;;;5.80;93.10;;;;;;4958655;28;20061;-72
2022/03/10 08:21:56;;;;;;;5.50;3.55;;;5.90;92.60;;;;;;4964232;28;20041;-72
2022/03/10 08:24:21;;;;;;;11.82;4.80;;;6.00;92.60;;;;;;4964354;28;20054;-72
2022/03/10 08:26:47;;;;;;;9.43;3.88;;;6.10;92.30;;;;;;4976167;28;20050;-72
2022/03/10 08:29:13;;;;;;;8.35;3.63;;;6.20;92.40;;;;;;4969807;28;20043;-72
2022/03/10 08:31:38;;;;;;;7.22;4.55;;;6.30;91.20;;;;;;4983833;28;20411;-72
2022/03/10 08:34:04;;;;;;;5.03;3.38;;;6.60;90.60;;;;;;4954517;28;20418;-72
2022/03/10 08:36:30;;;;;;;5.75;2.67;;;6.70;89.30;;;;;;4945916;28;20563;-72
2022/03/10 08:38:56;;;;;;;10.82;4.93;;;6.80;90.20;;;;;;4962208;28;20051;-72
2022/03/10 08:41:22;;;;;;;3.35;2.63;;;6.90;90.20;;;;;;4949613;28;20057;-72
2022/03/10 08:43:47;;;;;;;6.70;3.83;;;7.10;89.60;;;;;;4963874;28;20254;-72
2022/03/10 08:46:13;;;;;;;3.55;2.67;;;7.30;86.10;;;;;;4973784;28;20521;-72
2022/03/10 08:48:40;;;;;;;10.30;5.93;;;7.40;85.60;;;;;;4963808;28;20045;-72
2022/03/10 08:51:07;;;;;;;10.77;5.47;;;7.60;86.00;;;;;;4968657;28;20037;-72
2022/03/10 08:53:32;;;;;;;6.72;4.15;;;7.90;82.90;;;;;;4968544;28;20475;-71
2022/03/10 08:55:58;;;;;;;7.03;3.28;;;8.10;82.90;;;;;;4955446;28;20043;-71
2022/03/10 08:58:24;;;;;;;2.28;2.03;;;8.30;78.40;;;;;;4969076;28;20129;-77
2022/03/10 09:00:51;;;;;;;9.18;5.72;;;9.10;81.00;;;;;;4940673;28;20049;-71
2022/03/10 09:03:17;;;;;;;9.45;4.65;;;10.10;73.50;;;;;;4953634;28;20129;-71
2022/03/10 09:05:44;;;;;;;7.93;3.90;;;10.90;68.10;;;;;;4985506;28;20185;-71
2022/03/10 09:08:09;;;;;;;7.05;3.97;;;11.50;63.40;;;;;;4964242;28;20066;-71
2022/03/10 09:10:35;;;;;;;8.35;4.40;;;12.00;63.70;;;;;;4965650;28;20052;-71
2022/03/10 09:13:01;;;;;;;3.75;3.42;;;12.30;59.40;;;;;;4986508;28;20489;-72
2022/03/10 09:15:27;;;;;;;3.17;2.22;;;12.60;59.30;;;;;;4947855;28;20039;-72
2022/03/10 09:17:56;;;;;;;3.20;2.30;;;13.00;59.10;;;;;;4953115;28;20269;-72
2022/03/10 09:20:22;;;;;;;7.95;4.82;;;13.40;58.10;;;;;;4939482;28;20050;-70
2022/03/10 09:22:50;;;;;;;5.88;3.75;;;13.70;55.10;;;;;;4952711;28;20046;-73
2022/03/10 09:28:50;;;;;;;5.50;3.55;;;14.10;53.10;;;;;;4968586;28;20530;-76
2022/03/10 09:31:17;;;;;;;5.30;3.15;;;14.20;51.40;;;;;;4965548;28;20140;-71
2022/03/10 09:33:45;;;;;;;6.95;4.60;;;14.40;52.80;;;;;;4955638;28;20042;-71
2022/03/10 09:36:11;;;;;;;2.55;2.35;;;14.40;51.00;;;;;;4965069;28;20053;-71
2022/03/10 09:38:37;;;;;;;9.73;3.92;;;14.40;51.50;;;;;;4969106;28;20038;-70
2022/03/10 09:41:03;;;;;;;9.18;5.10;;;14.70;50.90;;;;;;4980615;28;20081;-70
2022/03/10 09:43:30;;;;;;;7.50;4.15;;;14.90;51.10;;;;;;4963801;28;20069;-70
2022/03/10 09:45:55;;;;;;;8.27;5.20;;;14.90;49.70;;;;;;4966184;28;20486;-70
2022/03/10 09:48:21;;;;;;;4.45;3.13;;;14.90;50.60;;;;;;4960634;28;20090;-71
2022/03/10 09:50:48;;;;;;;8.75;3.60;;;14.80;52.50;;;;;;4960378;28;20046;-69
2022/03/10 09:53:15;;;;;;;7.45;5.25;;;14.80;50.30;;;;;;4943614;28;20077;-69
2022/03/10 09:55:41;;;;;;;8.95;5.05;;;14.70;50.60;;;;;;4968428;28;20495;-71
2022/03/10 10:01:48;;;;;;;8.52;4.63;;;14.70;48.10;;;;;;4936542;29;20043;-71
2022/03/10 10:04:14;;;;;;;13.90;6.95;;;14.60;48.50;;;;;;4929685;29;20071;-70
2022/03/10 10:07:06;;;;;;;9.35;6.15;;;14.40;47.10;;;;;;4929556;29;20126;-70
2022/03/10 10:09:54;;;;;;;8.48;4.35;;;14.50;50.00;;;;;;4929320;29;20063;-70
2022/03/10 10:12:24;;;;;;;7.28;4.30;;;14.50;47.40;;;;;;4938903;29;20054;-70
2022/03/10 10:14:50;;;;;;;9.85;5.07;;;14.60;49.40;;;;;;4924614;29;20066;-70
2022/03/10 10:17:24;;;;;;;12.70;6.00;;;14.70;47.10;;;;;;4924113;29;20066;-70
2022/03/10 10:19:54;;;;;;;9.13;4.30;;;14.60;47.40;;;;;;4936966;29;20054;-70
2022/03/10 10:22:20;;;;;;;13.02;5.25;;;14.60;47.50;;;;;;4896501;29;20048;-70
2022/03/10 10:25:12;;;;;;;5.68;3.80;;;14.60;48.50;;;;;;4913050;29;20050;-70
2022/03/10 10:27:38;;;;;;;14.55;6.75;;;14.60;47.40;;;;;;4926376;29;20082;-70
2022/03/10 10:30:06;;;;;;;9.07;6.07;;;14.50;48.60;;;;;;4919858;29;20074;-70
2022/03/10 10:32:53;;;;;;;13.32;7.35;;;14.40;47.50;;;;;;4924064;29;20039;-70
2022/03/10 10:35:23;;;;;;;11.65;7.32;;;14.20;46.30;;;;;;4924902;28;20057;-70
2022/03/10 10:37:54;;;;;;;12.52;7.35;;;14.00;45.90;;;;;;4961830;28;20443;-70
2022/03/10 10:40:29;;;;;;;8.55;4.88;;;14.10;47.70;;;;;;4983305;28;20077;-70
2022/03/10 10:42:56;;;;;;;6.15;3.63;;;14.10;46.60;;;;;;4944818;28;20038;-70
2022/03/10 10:45:36;;;;;;;13.32;7.13;;;14.20;48.90;;;;;;4961943;28;20054;-70
2022/03/10 10:48:08;;;;;;;13.82;8.13;;;14.20;46.90;;;;;;4967963;28;20384;-71
2022/03/10 10:50:36;;;;;;;10.20;5.68;;;14.30;46.40;;;;;;4984896;28;20399;-70
2022/03/10 10:53:03;;;;;;;13.73;6.10;;;14.20;46.40;;;;;;4961613;28;20109;-70
2022/03/10 10:55:42;;;;;;;9.75;6.90;;;14.20;45.80;;;;;;4984498;28;20042;-70
2022/03/10 10:58:15;;;;;;;8.23;5.15;;;14.30;46.10;;;;;;4963147;28;20042;-70
2022/03/10 11:00:47;;;;;;;10.13;5.30;;;14.40;47.00;;;;;;4962007;28;20470;-70
2022/03/10 11:03:26;;;;;;;11.20;3.22;;;14.40;47.60;;;;;;4966332;28;20050;-70
2022/03/10 11:05:53;;;;;;;9.15;5.13;;;14.40;47.20;;;;;;4968768;28;20054;-70
2022/03/10 11:08:20;;;;;;;14.10;7.45;;;14.40;46.60;;;;;;4963764;28;20050;-70
2022/03/10 11:10:47;;;;;;;10.65;6.57;;;14.40;46.40;;;;;;4966316;28;20446;-70
2022/03/10 11:13:13;;;;;;;13.20;6.75;;;14.50;45.60;;;;;;4962872;28;20034;-70
2022/03/10 11:15:40;;;;;;;11.32;5.50;;;14.50;46.00;;;;;;4980302;28;20164;-71
2022/03/10 11:18:09;;;;;;;12.38;6.55;;;14.60;47.50;;;;;;4963854;28;20038;-71
2022/03/10 11:20:36;;;;;;;10.00;6.15;;;14.80;47.30;;;;;;4962956;28;20104;-68
2022/03/10 11:23:14;;;;;;;10.27;3.63;;;14.90;46.70;;;;;;4960173;28;20046;-68
2022/03/10 11:25:55;;;;;;;13.77;6.03;;;15.10;47.90;;;;;;4971192;28;20125;-68
2022/03/10 11:28:25;;;;;;;9.82;5.80;;;15.30;47.20;;;;;;4958302;28;20046;-68
2022/03/10 11:30:54;;;;;;;10.85;5.75;;;15.50;47.70;;;;;;4962943;28;20065;-68
2022/03/10 11:33:20;;;;;;;10.55;6.25;;;15.50;46.80;;;;;;4980302;28;20112;-68
2022/03/10 11:35:50;;;;;;;11.27;7.32;;;15.50;46.20;;;;;;4953093;28;20047;-68
2022/03/10 11:38:17;;;;;;;15.65;7.47;;;15.50;45.50;;;;;;4948176;28;20089;-68
2022/03/10 11:40:51;;;;;;;12.45;6.45;;;15.20;44.70;;;;;;4947301;28;20472;-68
2022/03/10 11:43:39;;;;;;;9.98;6.28;;;14.90;45.10;;;;;;4932990;28;20454;-70
2022/03/10 11:46:18;;;;;;;12.65;6.05;;;14.60;44.50;;;;;;4954624;28;20057;-71
2022/03/10 11:49:04;;;;;;;9.93;4.45;;;14.40;45.50;;;;;;4961023;28;20042;-71
2022/03/10 11:51:51;;;;;;;52.40;8.30;;;14.30;46.40;;;;;;4950755;28;20039;-71
2022/03/10 11:54:32;;;;;;;9.60;5.43;;;14.40;45.60;;;;;;4978589;28;20118;-71
2022/03/10 11:57:08;;;;;;;14.02;7.95;;;14.50;46.00;;;;;;4980728;28;20039;-71
2022/03/10 11:59:34;;;;;;;18.50;7.07;;;14.70;45.80;;;;;;4984222;28;20840;-70
2022/03/10 12:02:01;;;;;;;13.65;8.52;;;14.80;45.20;;;;;;4952642;28;20534;-71
2022/03/10 12:04:35;;;;;;;10.95;6.55;;;15.00;45.00;;;;;;4950471;28;20050;-71
2022/03/10 12:07:01;;;;;;;13.38;7.72;;;15.00;46.30;;;;;;4984541;28;20050;-71
2022/03/10 12:09:30;;;;;;;11.75;5.78;;;15.10;45.10;;;;;;4966481;28;20132;-68
2022/03/10 12:12:18;;;;;;;12.13;6.05;;;15.20;46.80;;;;;;4982480;28;20047;-68
2022/03/10 12:14:45;;;;;;;25.60;9.75;;;15.30;44.70;;;;;;4982979;28;20057;-68
2022/03/10 12:17:42;;;;;;;10.80;5.60;;;15.40;45.50;;;;;;4964349;28;20391;-68
2022/03/10 12:20:15;;;;;;;7.97;4.15;;;15.50;45.70;;;;;;4966308;28;20049;-68
2022/03/10 12:23:01;;;;;;;18.08;8.93;;;15.60;45.80;;;;;;4982825;28;20050;-70
2022/03/10 12:25:27;;;;;;;16.40;8.02;;;15.60;44.80;;;;;;4945330;28;20061;-68
2022/03/10 12:27:57;;;;;;;15.40;6.85;;;15.70;45.70;;;;;;4962072;28;20046;-68
2022/03/10 12:30:27;;;;;;;15.73;7.75;;;15.60;44.80;;;;;;4966260;28;20487;-68
2022/03/10 12:32:54;;;;;;;13.75;6.75;;;15.60;45.10;;;;;;4965554;28;20046;-68
2022/03/10 12:35:25;;;;;;;14.38;7.57;;;15.60;44.90;;;;;;4967607;28;20052;-68
2022/03/10 12:37:51;;;;;;;15.63;7.78;;;15.50;45.00;;;;;;4986414;28;20442;-68
2022/03/10 12:40:23;;;;;;;13.88;7.32;;;15.50;44.80;;;;;;4966071;28;20136;-68
2022/03/10 12:42:49;;;;;;;15.45;6.45;;;15.50;45.30;;;;;;4957435;28;20136;-68
2022/03/10 12:45:19;;;;;;;12.13;6.25;;;15.50;44.10;;;;;;4986186;28;20038;-68
2022/03/10 12:47:52;;;;;;;17.33;7.07;;;15.50;44.90;;;;;;4971066;28;20038;-68
2022/03/10 12:50:18;;;;;;;17.17;7.88;;;15.50;45.20;;;;;;4957720;28;20042;-68
2022/03/10 12:52:44;;;;;;;17.50;9.73;;;15.50;44.70;;;;;;4954241;28;20106;-68
2022/03/10 12:55:10;;;;;;;12.52;5.82;;;15.40;44.40;;;;;;4969716;28;20446;-68
2022/03/10 12:57:39;;;;;;;8.70;3.72;;;15.20;45.50;;;;;;4955960;28;20046;-68
2022/03/10 13:00:18;;;;;;;12.88;7.00;;;15.10;46.30;;;;;;4969641;28;20100;-69
2022/03/10 13:02:44;;;;;;;14.98;7.13;;;15.20;45.90;;;;;;4966659;28;20499;-69
2022/03/10 13:05:13;;;;;;;10.73;5.70;;;15.30;45.70;;;;;;4961747;28;20050;-69
2022/03/10 13:07:38;;;;;;;14.27;7.13;;;15.20;46.40;;;;;;4947026;28;20045;-69
2022/03/10 13:10:08;;;;;;;13.10;7.80;;;15.20;45.60;;;;;;4969200;28;20042;-69